Grove City, Florida
Current Conditions -  °F | °C
As of 11:55 AM on Monday 22 Dec 2014 (Local Time) from KVNC Reporting Station
Clear Clear  
Wind Chill: 75°   Ceiling: Unl
Heat Index: 75°   Visibility: 10mi
Dew Point: 68°   Wind: 17mph
Humidity: 78%   Direction: 170°S
Pressure: 30"   Gusts: 26mph
Location:  26.9253°N, 82.3009°W
Report Text: KVNC 221655Z AUTO 17015G23KT 10SM CLR 24/20 A3000 RMK AO2 TSNO
Loading
Personal Weather Stations






























Interactive Weather Map New forecast layout! Learn more

10-Day Weather Forecast

Advertisements
Track Severe Weather on mobile